Time;durP1;ratioP1;P1;durP2;ratioP2;P2;SDS_P1;SDS_P2;PMS_P1;PMS_P2;Temp;Humidity;BMP_temperature;BMP_pressure;BME280_temperature;BME280_humidity;BME280_pressure;Samples;Min_cycle;Max_cycle;Signal;HPM_P1;HPM_P2
2022/05/12 00:00:27;;;;;;;;;11.00;5.00;;;;;18.58;60.72;101519.66;5069623;28;49899;-67
2022/05/12 00:02:53;;;;;;;;;4.75;4.75;;;;;18.55;60.94;101525.00;5070867;28;50010;-68
2022/05/12 00:05:20;;;;;;;;;4.25;2.25;;;;;18.53;61.00;101524.09;5070490;27;49965;-67
2022/05/12 00:07:45;;;;;;;;;4.00;4.00;;;;;18.47;61.05;101516.13;5070527;28;50353;-68
2022/05/12 00:10:15;;;;;;;;;7.00;5.50;;;;;18.16;61.09;101454.97;5070393;28;49857;-67
2022/05/12 00:12:41;;;;;;;;;4.00;4.00;;;;;18.41;60.64;101494.84;5070840;28;50184;-68
2022/05/12 00:15:13;;;;;;;;;3.00;3.00;;;;;18.49;60.99;101522.31;5070428;28;51091;-67
2022/05/12 00:17:39;;;;;;;;;4.50;4.50;;;;;18.41;60.87;101524.97;5070587;28;49795;-68
2022/05/12 00:20:05;;;;;;;;;4.75;4.75;;;;;18.46;60.95;101536.50;5070497;28;49986;-67
2022/05/12 00:22:31;;;;;;;;;4.75;3.25;;;;;18.40;61.27;101533.81;5070387;28;49743;-65
2022/05/12 00:24:56;;;;;;;;;6.75;6.75;;;;;18.37;61.06;101533.84;5069941;28;49821;-67
2022/05/12 00:27:21;;;;;;;;;5.25;5.00;;;;;18.35;61.09;101532.06;5068461;28;49939;-68
2022/05/12 00:29:47;;;;;;;;;4.50;4.00;;;;;18.27;60.95;101524.97;5069835;28;49617;-67
2022/05/12 00:32:12;;;;;;;;;4.00;3.00;;;;;18.24;61.15;101521.44;5070921;28;49690;-68
2022/05/12 00:34:37;;;;;;;;;5.75;5.00;;;;;18.36;61.16;101556.00;5070218;27;50655;-67
2022/05/12 00:37:03;;;;;;;;;6.75;6.00;;;;;18.22;61.01;101537.34;5070285;27;49916;-67
2022/05/12 00:39:28;;;;;;;;;5.75;3.00;;;;;18.24;61.04;101540.03;5070314;27;49916;-67
2022/05/12 00:41:54;;;;;;;;;4.00;4.00;;;;;18.24;60.92;101556.88;5069033;28;49939;-69
2022/05/12 00:44:19;;;;;;;;;6.00;5.50;;;;;18.17;61.16;101549.75;5069924;28;49937;-68
2022/05/12 00:46:49;;;;;;;;;6.00;5.00;;;;;18.15;61.24;101562.16;5070124;28;49834;-69
2022/05/12 00:49:21;;;;;;;;;10.50;8.00;;;;;18.11;60.98;101575.41;5070225;28;49979;-69
2022/05/12 00:52:01;;;;;;;;;6.50;4.75;;;;;18.05;61.07;101576.31;5070372;28;49706;-69
2022/05/12 00:54:51;;;;;;;;;4.00;2.50;;;;;18.05;60.63;101583.34;5069938;28;50994;-69
2022/05/12 00:57:27;;;;;;;;;4.50;3.00;;;;;17.95;60.75;101564.75;5069907;28;49823;-69
2022/05/12 00:59:53;;;;;;;;;4.75;4.00;;;;;17.91;60.75;101568.28;5069972;28;49906;-69
2022/05/12 01:02:20;;;;;;;;;6.75;6.75;;;;;17.85;61.05;101570.00;5069905;28;49830;-68
2022/05/12 01:04:47;;;;;;;;;6.00;4.75;;;;;17.86;60.94;101577.13;5069779;28;49980;-69
2022/05/12 01:07:13;;;;;;;;;5.00;4.00;;;;;17.78;61.33;101568.22;5068557;28;49852;-69
2022/05/12 01:09:39;;;;;;;;;5.00;5.00;;;;;17.74;61.44;101581.47;5069767;28;49959;-69
2022/05/12 01:12:04;;;;;;;;;6.75;5.75;;;;;17.70;61.75;101585.00;5069895;28;49636;-68
2022/05/12 01:14:30;;;;;;;;;7.00;6.25;;;;;17.71;61.77;101584.13;5069638;28;50722;-69
2022/05/12 01:16:58;;;;;;;;;5.75;4.00;;;;;17.69;61.81;101596.50;5069771;28;49830;-69
2022/05/12 01:19:30;;;;;;;;;5.00;4.25;;;;;17.73;62.23;101605.38;5069847;28;49965;-68
2022/05/12 01:21:56;;;;;;;;;8.00;6.50;;;;;17.67;62.04;101597.38;5069916;28;49766;-69
2022/05/12 01:24:32;;;;;;;;;8.00;6.50;;;;;17.62;62.03;101599.09;5069476;28;49840;-69
2022/05/12 01:27:18;;;;;;;;;9.00;6.75;;;;;17.43;61.95;101563.59;5069673;27;49657;-69
2022/05/12 01:29:42;;;;;;;;;12.00;9.00;;;;;17.64;62.14;101608.84;5069638;28;49809;-69
2022/05/12 01:32:07;;;;;;;;;10.00;8.00;;;;;17.52;62.00;101581.34;5069667;28;49792;-69
2022/05/12 01:34:33;;;;;;;;;8.75;7.25;;;;;17.56;62.33;101588.44;5069448;28;49667;-69
2022/05/12 01:36:58;;;;;;;;;8.00;8.00;;;;;17.61;62.43;101602.63;5069304;28;49779;-69
2022/05/12 01:39:23;;;;;;;;;11.75;9.50;;;;;17.40;62.36;101563.59;5070140;27;49691;-68
2022/05/12 01:41:49;;;;;;;;;9.75;8.75;;;;;17.48;62.17;101587.53;5073256;28;49629;-69
2022/05/12 01:44:14;;;;;;;;;8.25;7.75;;;;;17.47;62.39;101599.91;5072861;28;50411;-68
2022/05/12 01:46:39;;;;;;;;;7.00;7.00;;;;;17.47;62.93;101605.22;5071698;28;49782;-68
2022/05/12 01:54:08;;;;;;;;;5.50;5.50;;;;;17.61;60.72;101626.53;4991778;28;50305;-74
2022/05/12 01:56:33;;;;;;;;;6.00;5.00;;;;;17.48;59.79;101604.34;4995274;28;49697;-74
2022/05/12 01:58:58;;;;;;;;;5.25;4.25;;;;;17.69;58.89;101640.75;4995633;28;49765;-73
2022/05/12 02:01:23;;;;;;;;;2.25;2.25;;;;;17.42;58.48;101610.47;4995811;28;49891;-73
2022/05/12 02:03:49;;;;;;;;;3.75;2.00;;;;;17.59;57.77;101647.75;4995499;28;49807;-72
2022/05/12 02:06:14;;;;;;;;;4.00;2.50;;;;;17.54;57.39;101649.47;4995287;28;49650;-72
2022/05/12 02:08:39;;;;;;;;;5.00;4.00;;;;;17.32;57.52;101621.91;4995480;28;49590;-72
2022/05/12 02:11:05;;;;;;;;;2.75;2.75;;;;;17.46;57.04;101653.84;4995717;28;49845;-72
2022/05/12 02:13:30;;;;;;;;;2.25;1.25;;;;;17.44;57.47;101656.50;4995136;28;49786;-72
2022/05/12 02:15:57;;;;;;;;;1.25;1.25;;;;;17.34;56.76;101644.03;4995367;28;49636;-72
2022/05/12 02:18:24;;;;;;;;;1.75;1.75;;;;;17.45;57.07;101662.69;4995429;28;49808;-72
2022/05/12 02:20:50;;;;;;;;;2.25;2.00;;;;;17.26;56.47;101626.28;4995177;28;49709;-72
2022/05/12 02:23:15;;;;;;;;;4.75;2.50;;;;;17.43;55.78;101667.13;4995170;28;49567;-72
2022/05/12 02:25:41;;;;;;;;;1.00;1.00;;;;;17.40;56.04;101673.28;4988929;28;49592;-72
2022/05/12 02:28:07;;;;;;;;;2.00;2.00;;;;;17.29;55.81;101669.69;4995391;28;49611;-72
2022/05/12 02:30:33;;;;;;;;;3.75;2.00;;;;;17.10;56.13;101654.50;4995287;28;49681;-72
2022/05/12 02:32:59;;;;;;;;;0.75;0.75;;;;;17.12;56.56;101672.19;4995061;28;50828;-72
2022/05/12 02:35:25;;;;;;;;;4.75;3.00;;;;;17.14;56.63;101680.16;4994727;28;49795;-72
2022/05/12 02:37:51;;;;;;;;;4.00;1.25;;;;;16.71;56.85;101620.56;4995071;28;50127;-72
2022/05/12 02:40:19;;;;;;;;;2.00;1.75;;;;;16.86;57.31;101652.50;4995196;28;49749;-73
2022/05/12 02:42:44;;;;;;;;;2.00;1.25;;;;;17.00;57.35;101681.81;4994786;28;49721;-73
2022/05/12 02:45:10;;;;;;;;;4.50;3.00;;;;;17.01;57.67;101686.25;4994909;28;49744;-72
2022/05/12 02:47:36;;;;;;;;;3.00;1.00;;;;;16.97;58.10;101690.59;4994843;28;49617;-72
2022/05/12 02:50:02;;;;;;;;;3.00;3.00;;;;;17.00;57.74;101682.69;4995082;28;49805;-73
2022/05/12 02:52:27;;;;;;;;;3.50;1.50;;;;;16.93;57.77;101694.13;4993336;28;50406;-73
2022/05/12 02:54:53;;;;;;;;;2.25;2.25;;;;;16.96;57.83;101691.50;4994570;28;49559;-73
2022/05/12 02:57:18;;;;;;;;;2.00;1.00;;;;;16.89;57.89;101689.69;4994895;28;49712;-73
2022/05/12 02:59:44;;;;;;;;;5.00;3.50;;;;;16.79;58.24;101670.13;4994982;28;50516;-73
2022/05/12 03:02:09;;;;;;;;;3.50;2.25;;;;;16.93;58.26;101704.72;4994508;28;49715;-72
2022/05/12 03:04:35;;;;;;;;;2.00;2.00;;;;;16.93;58.07;101703.84;4994705;28;49828;-72
2022/05/12 03:07:00;;;;;;;;;3.00;3.00;;;;;16.84;58.44;101694.91;4994533;28;49927;-72
2022/05/12 03:09:26;;;;;;;;;2.25;2.00;;;;;16.98;58.57;101720.66;4994866;28;49744;-73
2022/05/12 03:11:51;;;;;;;;;1.50;1.00;;;;;16.80;58.63;101693.13;4994287;28;49751;-73
2022/05/12 03:14:17;;;;;;;;;2.50;2.50;;;;;16.99;58.47;101722.47;4994384;28;49740;-73
2022/05/12 03:16:43;;;;;;;;;2.00;2.00;;;;;16.77;58.86;101689.53;4994687;28;49729;-73
2022/05/12 03:19:09;;;;;;;;;1.75;1.75;;;;;16.94;58.77;101719.75;4994639;28;50031;-73
2022/05/12 03:21:34;;;;;;;;;1.25;1.25;;;;;16.93;58.93;101714.44;5009074;28;50619;-72
2022/05/12 03:24:00;;;;;;;;;2.25;1.00;;;;;16.69;58.85;101659.38;4994348;28;49792;-72
2022/05/12 03:26:25;;;;;;;;;2.00;2.00;;;;;16.77;59.15;101676.28;4994355;28;50160;-72
2022/05/12 03:28:51;;;;;;;;;1.75;1.75;;;;;16.96;58.88;101715.34;4994502;28;49915;-72
2022/05/12 03:31:17;;;;;;;;;3.75;2.00;;;;;17.03;58.80;101719.84;4994269;28;49654;-72
2022/05/12 03:33:42;;;;;;;;;3.00;3.00;;;;;16.77;59.04;101685.13;4994259;28;49648;-72
2022/05/12 03:36:08;;;;;;;;;1.25;1.00;;;;;16.99;59.16;101714.53;4994066;28;49756;-72
2022/05/12 03:38:34;;;;;;;;;2.00;1.00;;;;;16.94;59.04;101719.75;4994377;28;49818;-72
2022/05/12 03:40:59;;;;;;;;;3.25;3.25;;;;;16.70;59.39;101691.25;4993954;28;50508;-72
2022/05/12 03:46:11;;;;;;;;;2.75;2.75;;;;;16.78;59.96;101707.22;4994279;28;49926;-72
2022/05/12 03:48:39;;;;;;;;;2.50;2.00;;;;;16.76;59.74;101703.66;4994147;28;49701;-72
2022/05/12 03:51:05;;;;;;;;;2.00;2.00;;;;;16.73;60.08;101704.53;4993608;28;49629;-72
2022/05/12 03:53:31;;;;;;;;;2.50;1.00;;;;;16.70;60.29;101708.91;4993659;28;49719;-72
2022/05/12 03:55:57;;;;;;;;;1.50;1.50;;;;;16.65;60.36;101705.28;4993757;28;49846;-72
2022/05/12 03:58:24;;;;;;;;;2.50;1.50;;;;;16.63;60.60;101715.00;4993889;28;49704;-72
2022/05/12 04:00:50;;;;;;;;;2.00;1.00;;;;;16.62;60.50;101716.75;4993712;28;49771;-72
2022/05/12 04:03:15;;;;;;;;;1.50;1.50;;;;;16.53;60.71;101720.19;4991723;28;49982;-72
2022/05/12 04:05:41;;;;;;;;;2.00;2.00;;;;;16.47;61.10;101724.50;4993491;28;49744;-72
2022/05/12 04:08:07;;;;;;;;;3.00;2.50;;;;;16.41;61.26;101730.66;4993852;28;49788;-72
2022/05/12 04:10:32;;;;;;;;;2.75;2.00;;;;;16.36;61.44;101731.44;4993680;28;50652;-73
2022/05/12 04:12:58;;;;;;;;;1.25;1.25;;;;;16.25;62.01;101723.38;4993811;28;49797;-72
2022/05/12 04:15:23;;;;;;;;;3.25;2.25;;;;;16.25;62.00;101726.00;4993616;28;49700;-73
2022/05/12 04:18:01;;;;;;;;;4.00;3.75;;;;;16.12;62.00;101727.63;4993897;28;49799;-72
2022/05/12 04:20:28;;;;;;;;;3.00;2.00;;;;;16.20;62.35;101736.53;4993302;28;49774;-72
2022/05/12 04:22:54;;;;;;;;;2.50;2.00;;;;;16.15;62.46;101742.66;4991398;28;49610;-73
2022/05/12 04:25:21;;;;;;;;;3.75;3.00;;;;;15.96;62.47;101707.09;4993520;28;49688;-72
2022/05/12 04:27:46;;;;;;;;;4.00;2.00;;;;;16.14;62.88;101732.94;4993666;28;50020;-71
2022/05/12 04:30:14;;;;;;;;;2.00;2.00;;;;;16.19;62.76;101744.47;4993370;28;50457;-72
2022/05/12 04:32:41;;;;;;;;;5.25;3.00;;;;;16.16;62.35;101736.50;4993475;28;49784;-72
2022/05/12 04:35:11;;;;;;;;;1.50;1.00;;;;;16.13;62.52;101741.75;4993301;28;49644;-73
2022/05/12 04:37:45;;;;;;;;;3.50;2.00;;;;;16.24;62.49;101756.03;4993418;28;49612;-73
2022/05/12 04:40:15;;;;;;;;;3.25;3.00;;;;;16.24;62.23;101764.88;4993222;28;49888;-73
2022/05/12 04:42:40;;;;;;;;;0.00;0.00;;;;;16.10;62.44;101753.19;4993352;28;49721;-73
2022/05/12 04:45:07;;;;;;;;;4.25;4.00;;;;;16.16;62.24;101763.88;4993085;28;49784;-72
2022/05/12 04:47:34;;;;;;;;;2.50;1.50;;;;;16.18;62.51;101759.47;4993359;28;49776;-73
2022/05/12 04:50:00;;;;;;;;;3.00;3.00;;;;;15.99;62.63;101733.59;4993143;28;50457;-73
2022/05/12 04:52:26;;;;;;;;;3.00;2.00;;;;;16.10;62.93;101760.22;4992601;28;49824;-72
2022/05/12 04:54:54;;;;;;;;;4.75;3.00;;;;;16.17;62.82;101767.41;4993356;28;49657;-73
2022/05/12 04:57:20;;;;;;;;;4.25;2.00;;;;;16.09;62.49;101753.16;4993044;28;49930;-73
2022/05/12 04:59:45;;;;;;;;;4.00;3.00;;;;;15.99;62.79;101737.13;4992987;28;49618;-73
2022/05/12 05:02:11;;;;;;;;;3.75;2.75;;;;;16.17;62.97;101765.66;4993080;28;49672;-73
2022/05/12 05:04:37;;;;;;;;;4.50;3.00;;;;;16.15;63.18;101767.38;4993133;28;49909;-72
2022/05/12 05:07:02;;;;;;;;;6.75;3.00;;;;;15.90;63.25;101742.31;4993038;28;49934;-73
2022/05/12 05:09:27;;;;;;;;;5.00;3.50;;;;;16.10;63.31;101777.00;4992895;28;50478;-73
2022/05/12 05:11:53;;;;;;;;;4.75;2.00;;;;;16.11;63.37;101773.50;4993001;28;49852;-73
2022/05/12 05:14:20;;;;;;;;;3.25;3.25;;;;;16.17;63.12;101784.19;4993794;28;49635;-73
2022/05/12 05:16:46;;;;;;;;;2.00;2.00;;;;;15.84;63.61;101742.22;4994867;28;50004;-73
2022/05/12 05:19:11;;;;;;;;;7.00;6.25;;;;;16.07;63.19;101768.16;4996148;28;50285;-72
2022/05/12 05:21:37;;;;;;;;;3.75;3.75;;;;;16.11;63.46;101780.56;4996089;28;49701;-72
2022/05/12 05:24:03;;;;;;;;;4.50;3.00;;;;;16.01;63.29;101759.22;4996173;28;49729;-73
2022/05/12 05:26:29;;;;;;;;;2.00;2.00;;;;;16.16;63.20;101792.13;4996440;28;49868;-72
2022/05/12 05:28:54;;;;;;;;;5.00;2.00;;;;;16.18;63.43;101787.72;4996042;28;50633;-72
2022/05/12 05:31:19;;;;;;;;;3.75;2.50;;;;;16.21;63.44;101790.41;4996126;28;49749;-72
2022/05/12 05:33:45;;;;;;;;;3.50;2.50;;;;;16.25;62.94;101797.56;4996168;28;49804;-72
2022/05/12 05:36:10;;;;;;;;;4.75;3.50;;;;;16.00;62.85;101756.56;4995965;28;49542;-72
2022/05/12 05:38:36;;;;;;;;;5.00;3.25;;;;;16.22;62.99;101801.06;4995909;28;49854;-72
2022/05/12 05:41:01;;;;;;;;;3.50;3.50;;;;;16.23;62.92;101807.25;4995953;28;49642;-72
2022/05/12 05:43:28;;;;;;;;;3.75;2.50;;;;;16.12;62.89;101783.25;4995980;28;49831;-72
2022/05/12 05:45:54;;;;;;;;;2.25;2.00;;;;;15.90;62.11;101742.31;4996076;28;49772;-71
2022/05/12 05:48:21;;;;;;;;;4.00;4.00;;;;;16.24;62.71;101815.22;4995819;28;50659;-71
2022/05/12 05:53:35;;;;;;;;;4.25;3.75;;;;;16.06;62.07;101771.66;4995721;28;49761;-73
2022/05/12 05:56:03;;;;;;;;;3.50;3.50;;;;;16.39;62.25;101822.47;4996746;28;49709;-74
2022/05/12 05:58:29;;;;;;;;;5.50;3.75;;;;;16.46;62.25;101828.75;4996731;28;50617;-73
2022/05/12 06:00:54;;;;;;;;;5.75;2.75;;;;;16.45;62.54;101829.63;4995392;28;49811;-73
2022/05/12 06:03:20;;;;;;;;;3.75;3.75;;;;;16.36;61.67;101817.13;4995566;28;49741;-71
2022/05/12 06:05:46;;;;;;;;;3.75;2.75;;;;;16.55;61.62;101853.63;4995534;28;49970;-72
2022/05/12 06:08:15;;;;;;;;;5.25;3.75;;;;;16.54;61.52;101856.25;4995446;28;50605;-72
2022/05/12 06:10:42;;;;;;;;;4.00;2.75;;;;;16.50;61.30;101855.34;4995229;28;49830;-69
2022/05/12 06:13:08;;;;;;;;;4.00;3.00;;;;;16.42;61.30;101827.84;4995345;28;49948;-70
2022/05/12 06:15:34;;;;;;;;;3.75;2.75;;;;;16.51;61.22;101845.63;4995667;28;49706;-70
2022/05/12 06:18:05;;;;;;;;;2.75;2.75;;;;;16.66;61.09;101872.31;4995176;28;49652;-71
2022/05/12 06:20:30;;;;;;;;;5.50;4.00;;;;;16.62;60.65;101853.72;4995180;28;49689;-66
2022/05/12 06:22:56;;;;;;;;;5.50;2.75;;;;;16.73;60.64;101871.56;4994873;28;51509;-69
2022/05/12 06:25:21;;;;;;;;;5.25;2.25;;;;;16.66;60.27;101839.63;4995487;28;49694;-68
2022/05/12 06:27:47;;;;;;;;;4.00;3.00;;;;;16.69;60.25;101844.97;4991364;28;50637;-66
2022/05/12 06:30:13;;;;;;;;;3.50;2.50;;;;;16.84;60.38;101861.09;4994667;28;49877;-70
2022/05/12 06:32:40;;;;;;;;;6.00;4.00;;;;;16.75;59.76;101853.91;4997245;28;49829;-71
2022/05/12 06:35:08;;;;;;;;;3.00;2.75;;;;;16.84;59.40;101861.09;4964560;28;50015;-65
2022/05/12 06:37:33;;;;;;;;;2.50;2.50;;;;;16.93;59.54;101871.81;4994732;28;50654;-65
2022/05/12 06:39:59;;;;;;;;;5.50;4.00;;;;;16.95;59.24;101874.50;4996185;28;50002;-66
2022/05/12 06:42:24;;;;;;;;;2.25;2.00;;;;;16.85;58.84;101879.69;4994660;28;49728;-65
2022/05/12 06:44:50;;;;;;;;;4.50;3.50;;;;;16.82;59.13;101882.31;4994569;28;49570;-66
2022/05/12 06:47:15;;;;;;;;;6.25;3.25;;;;;16.76;58.99;101857.47;4993759;28;50342;-66
2022/05/12 06:49:42;;;;;;;;;4.00;3.00;;;;;17.01;58.94;101882.53;4994920;28;49732;-67
2022/05/12 06:52:08;;;;;;;;;5.00;4.00;;;;;17.08;58.29;101881.72;4994582;28;49674;-65
2022/05/12 06:54:35;;;;;;;;;4.75;2.25;;;;;17.04;58.13;101862.22;4994372;28;49946;-65
2022/05/12 06:57:02;;;;;;;;;5.50;3.00;;;;;17.14;57.93;101861.47;4977320;28;50545;-65
2022/05/12 06:59:27;;;;;;;;;4.00;3.50;;;;;17.28;57.20;101882.88;4988335;28;49679;-67
2022/05/12 07:01:53;;;;;;;;;4.00;2.50;;;;;17.36;57.65;101888.22;4994668;28;49966;-68
2022/05/12 07:04:19;;;;;;;;;4.75;3.00;;;;;17.25;56.60;101856.28;4994985;28;49437;-68
2022/05/12 07:06:45;;;;;;;;;5.25;4.50;;;;;17.03;56.26;101820.66;4994153;28;51507;-68
2022/05/12 07:09:10;;;;;;;;;3.25;3.00;;;;;17.44;56.52;101890.09;4994515;28;49812;-68
2022/05/12 07:11:35;;;;;;;;;2.50;2.50;;;;;17.51;56.19;101890.16;4994660;28;49717;-67
2022/05/12 07:14:01;;;;;;;;;3.00;3.00;;;;;17.45;56.08;101861.78;4994866;28;49619;-67
2022/05/12 07:16:26;;;;;;;;;4.50;3.50;;;;;17.72;56.20;101893.94;4994353;28;49612;-69
2022/05/12 07:18:51;;;;;;;;;5.25;5.25;;;;;17.67;55.51;101874.41;4994227;28;49582;-68
2022/05/12 07:26:51;;;;;;;;;5.50;4.50;;;;;18.03;55.25;101891.56;4994293;28;49819;-68
2022/05/12 07:29:20;;;;;;;;;6.00;5.50;;;;;18.10;55.14;101884.53;4994155;28;50208;-68
2022/05/12 07:31:48;;;;;;;;;6.00;2.25;;;;;18.17;54.71;101883.72;4994238;28;49784;-67
2022/05/12 07:34:15;;;;;;;;;3.75;3.25;;;;;18.19;54.28;101880.19;4994250;28;49708;-67
2022/05/12 07:36:45;;;;;;;;;4.00;3.75;;;;;18.21;52.57;101877.53;4993565;28;50861;-67
2022/05/12 07:39:12;;;;;;;;;6.50;4.25;;;;;18.29;53.45;101882.03;4993952;28;49738;-68
2022/05/12 07:41:41;;;;;;;;;4.25;3.25;;;;;18.32;53.36;101883.81;4993750;28;49559;-68
2022/05/12 07:44:10;;;;;;;;;5.00;5.00;;;;;18.18;52.96;101859.81;4994307;28;49749;-68
2022/05/12 07:46:36;;;;;;;;;3.75;3.50;;;;;18.30;53.31;101882.91;4993790;28;50316;-69
2022/05/12 07:49:02;;;;;;;;;3.50;3.00;;;;;18.39;52.94;101893.59;4993890;28;49686;-68
2022/05/12 07:51:27;;;;;;;;;2.50;2.50;;;;;18.48;52.99;101890.13;4993998;28;49722;-67
2022/05/12 07:53:53;;;;;;;;;7.00;3.25;;;;;18.35;51.74;101864.34;4993688;28;50046;-69
2022/05/12 07:56:22;;;;;;;;;3.25;3.25;;;;;18.31;50.72;101869.63;4993792;28;50417;-68
2022/05/12 07:58:48;;;;;;;;;5.50;2.75;;;;;18.25;50.80;101879.34;4993788;28;49847;-68
2022/05/12 08:01:15;;;;;;;;;3.00;3.00;;;;;18.06;50.88;101854.41;4993675;28;49761;-69
2022/05/12 08:03:40;;;;;;;;;3.50;3.50;;;;;18.30;50.25;101886.47;4994022;28;49809;-68
2022/05/12 08:06:07;;;;;;;;;5.50;5.25;;;;;18.33;50.22;101896.22;4993353;28;50001;-68
2022/05/12 08:08:33;;;;;;;;;2.75;2.00;;;;;18.35;50.02;101893.59;4993767;28;49824;-68
2022/05/12 08:10:59;;;;;;;;;2.00;2.00;;;;;18.35;50.33;101883.84;4993846;28;49890;-68
2022/05/12 08:13:25;;;;;;;;;5.50;3.50;;;;;18.27;49.62;101865.19;4993886;28;49751;-68
2022/05/12 08:15:52;;;;;;;;;5.00;3.75;;;;;18.52;48.85;101905.19;4993472;28;50598;-69
2022/05/12 08:18:23;;;;;;;;;1.00;1.00;;;;;18.53;48.99;101904.34;4993386;28;49750;-69
2022/05/12 08:20:50;;;;;;;;;2.00;2.00;;;;;18.13;48.82;101839.38;4993352;28;49857;-69
2022/05/12 08:23:16;;;;;;;;;4.00;2.50;;;;;18.58;48.02;101895.50;4993631;28;49820;-69
2022/05/12 08:25:43;;;;;;;;;2.00;2.00;;;;;18.69;48.19;101900.03;4993402;28;50683;-68
2022/05/12 08:28:09;;;;;;;;;3.00;2.00;;;;;18.63;48.16;101899.97;4993351;28;49760;-68
2022/05/12 08:30:34;;;;;;;;;2.75;2.25;;;;;18.65;48.11;101898.25;4993296;28;49813;-68
2022/05/12 08:33:00;;;;;;;;;4.75;4.25;;;;;18.68;47.59;101900.91;4993644;28;49561;-69
2022/05/12 08:35:26;;;;;;;;;6.00;3.75;;;;;18.61;47.43;101886.66;4993000;28;50631;-69
2022/05/12 08:37:52;;;;;;;;;1.25;1.25;;;;;18.76;48.24;101907.16;4993365;28;49604;-68
2022/05/12 08:40:54;;;;;;;;;2.00;2.00;;;;;18.85;48.05;101909.88;4993136;28;49718;-68
2022/05/12 08:43:31;;;;;;;;;4.00;2.75;;;;;18.99;47.65;101907.25;4993564;28;49703;-69
2022/05/12 08:46:03;;;;;;;;;2.50;2.00;;;;;19.10;47.47;101910.84;4993171;28;50839;-69
2022/05/12 08:48:29;;;;;;;;;0.75;0.75;;;;;19.07;47.06;101894.88;4993334;28;49685;-68
2022/05/12 08:50:55;;;;;;;;;2.00;2.00;;;;;18.98;45.62;101881.53;4995852;28;49544;-68
2022/05/12 08:53:25;;;;;;;;;3.00;1.00;;;;;19.18;45.61;101909.13;4996432;28;49947;-68
2022/05/12 08:55:57;;;;;;;;;1.00;1.00;;;;;19.18;45.12;101901.13;4995491;28;49731;-68
2022/05/12 08:58:37;;;;;;;;;1.75;1.75;;;;;19.32;45.41;101903.84;4995768;28;49848;-68
2022/05/12 09:01:21;;;;;;;;;5.75;3.25;;;;;19.37;44.63;101899.41;4995755;28;49704;-68
2022/05/12 09:04:04;;;;;;;;;1.50;1.50;;;;;19.41;45.46;101899.44;4995769;28;49621;-68
2022/05/12 09:06:38;;;;;;;;;2.00;1.00;;;;;19.48;45.57;101876.34;4995128;28;50377;-68
2022/05/12 09:09:03;;;;;;;;;2.00;2.00;;;;;19.71;45.70;101885.31;4995064;28;49700;-69
2022/05/12 09:11:47;;;;;;;;;1.00;1.00;;;;;19.86;45.45;101881.75;4994883;28;49865;-68
2022/05/12 09:14:23;;;;;;;;;3.00;2.00;;;;;19.87;44.88;101872.00;4995364;28;49684;-68
2022/05/12 09:16:52;;;;;;;;;4.00;2.75;;;;;19.97;44.99;101887.97;4992369;28;49762;-68
2022/05/12 09:19:19;;;;;;;;;1.25;1.00;;;;;19.96;44.88;101882.66;4994460;28;49843;-68
2022/05/12 09:21:45;;;;;;;;;4.00;3.25;;;;;19.97;44.05;101879.97;4995054;28;49955;-69
2022/05/12 09:24:11;;;;;;;;;3.25;2.50;;;;;20.09;44.42;101891.56;4995544;28;49581;-69
2022/05/12 09:26:48;;;;;;;;;2.00;0.75;;;;;19.98;43.28;101857.78;4994058;28;49719;-69
2022/05/12 09:29:30;;;;;;;;;2.00;2.00;;;;;20.25;43.50;101893.28;4993943;28;49885;-68
2022/05/12 09:32:02;;;;;;;;;2.00;1.00;;;;;20.36;43.02;101891.50;4995109;28;49651;-68
2022/05/12 09:34:36;;;;;;;;;1.75;1.75;;;;;20.45;42.61;101893.28;4995158;28;49512;-68
2022/05/12 09:37:18;;;;;;;;;2.75;2.00;;;;;20.32;42.87;101828.41;4994680;28;50412;-68
2022/05/12 09:39:46;;;;;;;;;2.00;2.00;;;;;20.88;42.78;101885.19;4994474;28;49841;-68
2022/05/12 09:42:27;;;;;;;;;3.00;1.00;;;;;21.04;42.41;101881.56;4994976;28;49783;-69
2022/05/12 09:44:57;;;;;;;;;2.00;1.75;;;;;21.21;41.87;101882.34;4995104;28;49939;-69
2022/05/12 09:47:23;;;;;;;;;1.25;1.25;;;;;21.30;41.54;101868.97;4994749;28;49708;-68
2022/05/12 09:49:49;;;;;;;;;5.50;2.00;;;;;21.42;40.95;101868.94;4994678;28;49794;-67
2022/05/12 09:52:32;;;;;;;;;3.80;3.00;;;;;21.70;40.61;101872.25;4981158;28;1136423;-69
2022/05/12 09:55:24;;;;;;;;;2.00;2.00;;;;;21.69;40.44;101849.13;4995695;28;50337;-68
2022/05/12 09:58:04;;;;;;;;;3.50;2.50;;;;;21.94;39.95;101872.97;4989676;28;49689;-68
2022/05/12 10:00:42;;;;;;;;;1.00;1.00;;;;;21.82;39.89;101835.66;4995459;28;49978;-68
2022/05/12 10:09:19;;;;;;;;;2.25;1.50;;;;;22.10;39.63;101872.00;4995633;28;49854;-68
2022/05/12 10:12:06;;;;;;;;;3.00;2.00;;;;;22.00;39.09;101860.47;4995341;28;49886;-68
2022/05/12 10:14:50;;;;;;;;;2.25;2.25;;;;;21.96;39.47;101855.13;4990755;28;50159;-68
2022/05/12 10:17:37;;;;;;;;;1.50;0.00;;;;;22.13;39.47;101858.59;4995454;28;50428;-68
2022/05/12 10:20:26;;;;;;;;;2.00;1.50;;;;;22.13;39.15;101839.88;4995111;28;49932;-68
2022/05/12 10:23:11;;;;;;;;;4.00;2.50;;;;;22.22;38.42;101830.88;4994555;28;49769;-68
2022/05/12 10:25:58;;;;;;;;;4.00;2.00;;;;;22.32;38.65;101850.38;4995108;28;49889;-68
2022/05/12 10:28:48;;;;;;;;;3.00;3.00;;;;;22.43;38.83;101843.13;4995141;28;51755;-68
2022/05/12 10:31:32;;;;;;;;;3.50;3.50;;;;;22.51;38.67;101849.28;4995282;28;49694;-68
2022/05/12 10:34:19;;;;;;;;;2.50;1.00;;;;;22.56;37.93;101855.44;4995103;28;49819;-68
2022/05/12 10:36:58;;;;;;;;;5.00;3.50;;;;;22.19;37.89;101788.97;4995028;28;49697;-70
2022/05/12 10:39:52;;;;;;;;;15.00;13.25;;;;;22.48;38.31;101834.13;4994593;28;49864;-69
2022/05/12 10:42:36;;;;;;;;;6.75;4.75;;;;;22.64;38.38;101856.25;4994890;28;49800;-68
2022/05/12 10:45:18;;;;;;;;;7.00;5.75;;;;;22.77;38.18;101856.97;4991083;28;49845;-65
2022/05/12 10:47:54;;;;;;;;;2.25;2.25;;;;;22.79;37.92;101848.03;4995078;28;49749;-66
2022/05/12 10:50:28;;;;;;;;;4.50;2.75;;;;;22.82;37.32;101831.94;4994556;28;50532;-68
2022/05/12 10:53:06;;;;;;;;;4.25;2.50;;;;;22.92;37.39;101842.56;4994533;28;49841;-66
2022/05/12 10:55:53;;;;;;;;;4.50;3.50;;;;;22.95;37.48;101811.25;4994900;28;50045;-66
2022/05/12 10:58:26;;;;;;;;;4.00;3.00;;;;;23.13;37.03;101836.91;4994633;28;49775;-70
2022/05/12 11:01:05;;;;;;;;;4.00;4.00;;;;;23.19;37.52;101834.16;4994510;28;51480;-70
2022/05/12 11:03:40;;;;;;;;;4.50;3.75;;;;;23.33;37.24;101834.81;4994591;28;49682;-67
2022/05/12 11:06:12;;;;;;;;;1.75;1.75;;;;;23.35;36.89;101816.03;4994405;28;49683;-71
2022/05/12 11:08:42;;;;;;;;;1.25;1.25;;;;;23.63;36.17;101824.56;4989173;28;49818;-67
2022/05/12 11:11:12;;;;;;;;;2.50;2.50;;;;;23.67;36.38;101820.94;4994283;28;49535;-71
2022/05/12 11:13:45;;;;;;;;;3.00;3.00;;;;;23.90;36.59;101834.81;4993614;28;49779;-66
2022/05/12 11:16:22;;;;;;;;;1.25;1.25;;;;;24.01;35.69;101829.25;4994644;28;49736;-71
2022/05/12 11:19:01;;;;;;;;;2.00;2.00;;;;;23.99;35.17;101813.19;4994565;28;49756;-70
2022/05/12 11:21:29;;;;;;;;;1.25;1.25;;;;;24.13;35.49;101823.69;4993912;28;49636;-66
2022/05/12 11:24:21;;;;;;;;;2.00;2.00;;;;;24.10;35.45;101831.78;4994327;28;49769;-68
2022/05/12 11:27:05;;;;;;;;;2.75;1.00;;;;;24.07;35.62;101825.59;4994371;28;49741;-72
2022/05/12 11:29:48;;;;;;;;;3.25;2.00;;;;;24.15;35.02;101832.59;4994631;28;50004;-65
2022/05/12 11:32:29;;;;;;;;;1.25;1.25;;;;;24.07;35.91;101822.91;4994035;28;49684;-67
2022/05/12 11:35:09;;;;;;;;;2.50;1.00;;;;;24.12;35.43;101811.16;4994141;28;49770;-67
2022/05/12 11:37:38;;;;;;;;;4.00;2.75;;;;;24.39;35.60;101831.25;4994058;28;49828;-67
2022/05/12 11:40:43;;;;;;;;;2.00;1.50;;;;;24.40;34.48;101833.03;4992935;28;50124;-69
2022/05/12 11:46:22;;;;;;;;;1.75;1.75;;;;;24.67;34.70;101839.66;4993925;28;50340;-70
2022/05/12 11:48:53;;;;;;;;;2.00;2.00;;;;;24.83;34.28;101832.16;4994182;28;49674;-68
2022/05/12 11:51:31;;;;;;;;;1.50;1.50;;;;;24.80;33.44;101825.06;4987960;28;49594;-68
2022/05/12 11:54:01;;;;;;;;;4.75;1.50;;;;;24.99;34.45;101833.59;4993518;28;50338;-71
2022/05/12 11:56:50;;;;;;;;;2.00;0.50;;;;;25.11;34.89;101811.88;4993674;28;49695;-71
2022/05/12 11:59:30;;;;;;;;;0.25;0.25;;;;;25.35;33.63;101833.72;4993802;28;49556;-68